sensor_id;sensor_type;location;lat;lon;timestamp;P1;durP1;ratioP1;P2;durP2;ratioP2
8337;SDS011;4206;48.634;9.516;2022-08-19T00:00:14;24.40;;;20.50;;
8337;SDS011;4206;48.634;9.516;2022-08-19T00:02:41;27.33;;;22.80;;
8337;SDS011;4206;48.634;9.516;2022-08-19T00:05:07;27.70;;;24.37;;
8337;SDS011;4206;48.634;9.516;2022-08-19T00:07:34;24.90;;;22.20;;
8337;SDS011;4206;48.634;9.516;2022-08-19T00:10:00;25.53;;;22.67;;
8337;SDS011;4206;48.634;9.516;2022-08-19T00:12:26;26.83;;;21.37;;
8337;SDS011;4206;48.634;9.516;2022-08-19T00:14:52;27.43;;;23.73;;
8337;SDS011;4206;48.634;9.516;2022-08-19T00:17:19;28.03;;;21.60;;
8337;SDS011;4206;48.634;9.516;2022-08-19T00:19:45;28.20;;;23.20;;
8337;SDS011;4206;48.634;9.516;2022-08-19T00:22:11;28.03;;;23.43;;
8337;SDS011;4206;48.634;9.516;2022-08-19T00:24:36;28.17;;;22.73;;
8337;SDS011;4206;48.634;9.516;2022-08-19T00:27:03;26.40;;;23.00;;
8337;SDS011;4206;48.634;9.516;2022-08-19T00:29:29;30.87;;;23.67;;
8337;SDS011;4206;48.634;9.516;2022-08-19T00:31:56;31.33;;;24.97;;
8337;SDS011;4206;48.634;9.516;2022-08-19T00:34:24;34.43;;;27.03;;
8337;SDS011;4206;48.634;9.516;2022-08-19T00:36:53;29.50;;;25.10;;
8337;SDS011;4206;48.634;9.516;2022-08-19T00:39:19;35.33;;;27.70;;
8337;SDS011;4206;48.634;9.516;2022-08-19T00:41:45;34.53;;;27.37;;
8337;SDS011;4206;48.634;9.516;2022-08-19T00:44:15;35.87;;;28.40;;
8337;SDS011;4206;48.634;9.516;2022-08-19T00:46:46;29.97;;;24.77;;
8337;SDS011;4206;48.634;9.516;2022-08-19T00:49:15;30.83;;;26.37;;
8337;SDS011;4206;48.634;9.516;2022-08-19T00:51:45;31.60;;;25.77;;
8337;SDS011;4206;48.634;9.516;2022-08-19T00:54:14;31.17;;;26.93;;
8337;SDS011;4206;48.634;9.516;2022-08-19T00:56:41;33.87;;;25.37;;
8337;SDS011;4206;48.634;9.516;2022-08-19T00:59:08;33.73;;;26.43;;
8337;SDS011;4206;48.634;9.516;2022-08-19T01:01:38;33.53;;;25.90;;
8337;SDS011;4206;48.634;9.516;2022-08-19T01:04:06;30.83;;;24.93;;
8337;SDS011;4206;48.634;9.516;2022-08-19T01:06:32;36.10;;;26.70;;
8337;SDS011;4206;48.634;9.516;2022-08-19T01:09:00;35.43;;;25.80;;
8337;SDS011;4206;48.634;9.516;2022-08-19T01:11:27;33.50;;;26.53;;
8337;SDS011;4206;48.634;9.516;2022-08-19T01:13:53;36.43;;;26.60;;
8337;SDS011;4206;48.634;9.516;2022-08-19T01:16:20;31.97;;;26.27;;
8337;SDS011;4206;48.634;9.516;2022-08-19T01:18:48;37.00;;;28.67;;
8337;SDS011;4206;48.634;9.516;2022-08-19T01:23:55;34.97;;;27.50;;
8337;SDS011;4206;48.634;9.516;2022-08-19T01:26:22;36.57;;;28.40;;
8337;SDS011;4206;48.634;9.516;2022-08-19T01:28:50;34.10;;;28.63;;
8337;SDS011;4206;48.634;9.516;2022-08-19T01:31:18;39.87;;;29.67;;
8337;SDS011;4206;48.634;9.516;2022-08-19T01:33:46;40.87;;;29.27;;
8337;SDS011;4206;48.634;9.516;2022-08-19T01:36:14;38.60;;;27.20;;
8337;SDS011;4206;48.634;9.516;2022-08-19T01:38:42;37.60;;;28.17;;
8337;SDS011;4206;48.634;9.516;2022-08-19T01:41:09;38.40;;;28.23;;
8337;SDS011;4206;48.634;9.516;2022-08-19T01:43:36;36.97;;;27.50;;
8337;SDS011;4206;48.634;9.516;2022-08-19T01:46:02;41.63;;;29.10;;
8337;SDS011;4206;48.634;9.516;2022-08-19T01:48:32;39.27;;;29.60;;
8337;SDS011;4206;48.634;9.516;2022-08-19T01:50:58;42.30;;;29.40;;
8337;SDS011;4206;48.634;9.516;2022-08-19T01:53:25;39.40;;;27.37;;
8337;SDS011;4206;48.634;9.516;2022-08-19T01:55:51;37.57;;;27.40;;
8337;SDS011;4206;48.634;9.516;2022-08-19T01:58:21;36.63;;;28.10;;
8337;SDS011;4206;48.634;9.516;2022-08-19T02:00:48;40.27;;;27.60;;
8337;SDS011;4206;48.634;9.516;2022-08-19T02:03:14;44.43;;;29.30;;
8337;SDS011;4206;48.634;9.516;2022-08-19T02:05:41;40.37;;;29.77;;
8337;SDS011;4206;48.634;9.516;2022-08-19T02:08:07;42.60;;;29.20;;
8337;SDS011;4206;48.634;9.516;2022-08-19T02:10:33;46.77;;;31.50;;
8337;SDS011;4206;48.634;9.516;2022-08-19T02:13:03;43.33;;;30.00;;
8337;SDS011;4206;48.634;9.516;2022-08-19T02:15:29;45.20;;;31.50;;
8337;SDS011;4206;48.634;9.516;2022-08-19T02:17:55;49.87;;;32.20;;
8337;SDS011;4206;48.634;9.516;2022-08-19T02:20:21;49.60;;;31.90;;
8337;SDS011;4206;48.634;9.516;2022-08-19T02:22:47;46.03;;;31.00;;
8337;SDS011;4206;48.634;9.516;2022-08-19T02:25:13;54.90;;;33.40;;
8337;SDS011;4206;48.634;9.516;2022-08-19T02:27:40;52.20;;;32.47;;
8337;SDS011;4206;48.634;9.516;2022-08-19T02:30:07;49.77;;;31.57;;
8337;SDS011;4206;48.634;9.516;2022-08-19T02:32:33;51.43;;;31.37;;
8337;SDS011;4206;48.634;9.516;2022-08-19T02:34:59;49.93;;;30.93;;
8337;SDS011;4206;48.634;9.516;2022-08-19T02:37:25;51.97;;;31.77;;
8337;SDS011;4206;48.634;9.516;2022-08-19T02:40:07;47.40;;;29.90;;
8337;SDS011;4206;48.634;9.516;2022-08-19T02:42:33;55.97;;;33.23;;
8337;SDS011;4206;48.634;9.516;2022-08-19T02:44:59;54.83;;;33.30;;
8337;SDS011;4206;48.634;9.516;2022-08-19T02:47:25;50.17;;;32.60;;
8337;SDS011;4206;48.634;9.516;2022-08-19T02:49:51;53.10;;;31.87;;
8337;SDS011;4206;48.634;9.516;2022-08-19T02:52:17;54.67;;;33.17;;
8337;SDS011;4206;48.634;9.516;2022-08-19T02:54:43;52.30;;;30.73;;
8337;SDS011;4206;48.634;9.516;2022-08-19T02:57:09;46.30;;;31.00;;
8337;SDS011;4206;48.634;9.516;2022-08-19T02:59:35;53.80;;;32.80;;
8337;SDS011;4206;48.634;9.516;2022-08-19T03:02:01;52.90;;;32.40;;
8337;SDS011;4206;48.634;9.516;2022-08-19T03:04:27;46.30;;;30.80;;
8337;SDS011;4206;48.634;9.516;2022-08-19T03:06:54;58.00;;;32.23;;
8337;SDS011;4206;48.634;9.516;2022-08-19T03:09:20;53.53;;;31.70;;
8337;SDS011;4206;48.634;9.516;2022-08-19T03:11:46;48.73;;;31.50;;
8337;SDS011;4206;48.634;9.516;2022-08-19T03:14:12;53.07;;;32.37;;
8337;SDS011;4206;48.634;9.516;2022-08-19T03:16:43;63.90;;;34.90;;
8337;SDS011;4206;48.634;9.516;2022-08-19T03:19:09;61.37;;;33.70;;
8337;SDS011;4206;48.634;9.516;2022-08-19T03:21:35;57.03;;;34.20;;
8337;SDS011;4206;48.634;9.516;2022-08-19T03:24:03;56.20;;;33.10;;
8337;SDS011;4206;48.634;9.516;2022-08-19T03:26:29;49.67;;;32.50;;
8337;SDS011;4206;48.634;9.516;2022-08-19T03:28:55;49.77;;;33.10;;
8337;SDS011;4206;48.634;9.516;2022-08-19T03:31:22;46.63;;;29.80;;
8337;SDS011;4206;48.634;9.516;2022-08-19T03:33:49;52.83;;;31.97;;
8337;SDS011;4206;48.634;9.516;2022-08-19T03:36:17;43.60;;;30.07;;
8337;SDS011;4206;48.634;9.516;2022-08-19T03:38:46;54.50;;;31.40;;
8337;SDS011;4206;48.634;9.516;2022-08-19T03:41:14;54.00;;;31.20;;
8337;SDS011;4206;48.634;9.516;2022-08-19T03:43:40;51.93;;;30.73;;
8337;SDS011;4206;48.634;9.516;2022-08-19T03:46:08;48.20;;;31.50;;
8337;SDS011;4206;48.634;9.516;2022-08-19T03:48:34;55.80;;;32.43;;
8337;SDS011;4206;48.634;9.516;2022-08-19T03:51:01;57.97;;;32.70;;
8337;SDS011;4206;48.634;9.516;2022-08-19T03:53:27;58.33;;;33.40;;
8337;SDS011;4206;48.634;9.516;2022-08-19T03:55:54;47.63;;;29.57;;
8337;SDS011;4206;48.634;9.516;2022-08-19T03:58:20;53.30;;;31.37;;
8337;SDS011;4206;48.634;9.516;2022-08-19T04:00:47;51.10;;;30.57;;
8337;SDS011;4206;48.634;9.516;2022-08-19T04:03:13;57.20;;;31.73;;
8337;SDS011;4206;48.634;9.516;2022-08-19T04:05:39;53.63;;;32.23;;
8337;SDS011;4206;48.634;9.516;2022-08-19T04:08:05;54.40;;;30.67;;
8337;SDS011;4206;48.634;9.516;2022-08-19T04:10:34;61.43;;;31.63;;
8337;SDS011;4206;48.634;9.516;2022-08-19T04:13:00;52.87;;;31.70;;
8337;SDS011;4206;48.634;9.516;2022-08-19T04:15:27;50.97;;;33.17;;
8337;SDS011;4206;48.634;9.516;2022-08-19T04:17:56;58.40;;;31.83;;
8337;SDS011;4206;48.634;9.516;2022-08-19T04:20:22;50.30;;;33.20;;
8337;SDS011;4206;48.634;9.516;2022-08-19T04:22:48;51.77;;;31.37;;
8337;SDS011;4206;48.634;9.516;2022-08-19T04:25:14;47.53;;;30.10;;
8337;SDS011;4206;48.634;9.516;2022-08-19T04:27:40;51.13;;;31.67;;
8337;SDS011;4206;48.634;9.516;2022-08-19T04:30:12;53.30;;;31.23;;
8337;SDS011;4206;48.634;9.516;2022-08-19T04:32:38;55.10;;;32.30;;
8337;SDS011;4206;48.634;9.516;2022-08-19T04:35:04;64.43;;;33.87;;
8337;SDS011;4206;48.634;9.516;2022-08-19T04:37:30;52.00;;;32.33;;
8337;SDS011;4206;48.634;9.516;2022-08-19T04:39:58;55.67;;;30.57;;
8337;SDS011;4206;48.634;9.516;2022-08-19T04:42:44;61.70;;;34.53;;
8337;SDS011;4206;48.634;9.516;2022-08-19T04:45:11;59.63;;;32.87;;
8337;SDS011;4206;48.634;9.516;2022-08-19T04:47:39;54.27;;;31.63;;
8337;SDS011;4206;48.634;9.516;2022-08-19T04:50:06;54.27;;;31.00;;
8337;SDS011;4206;48.634;9.516;2022-08-19T04:52:33;55.20;;;32.63;;
8337;SDS011;4206;48.634;9.516;2022-08-19T04:54:59;53.60;;;32.10;;
8337;SDS011;4206;48.634;9.516;2022-08-19T04:57:25;52.97;;;33.20;;
8337;SDS011;4206;48.634;9.516;2022-08-19T04:59:55;51.53;;;33.37;;
8337;SDS011;4206;48.634;9.516;2022-08-19T05:02:21;50.10;;;31.00;;
8337;SDS011;4206;48.634;9.516;2022-08-19T05:04:50;54.00;;;31.90;;
8337;SDS011;4206;48.634;9.516;2022-08-19T05:07:16;48.97;;;30.80;;
8337;SDS011;4206;48.634;9.516;2022-08-19T05:09:42;58.83;;;32.90;;
8337;SDS011;4206;48.634;9.516;2022-08-19T05:12:08;55.07;;;32.70;;
8337;SDS011;4206;48.634;9.516;2022-08-19T05:14:34;53.07;;;33.03;;
8337;SDS011;4206;48.634;9.516;2022-08-19T05:17:01;54.53;;;32.67;;
8337;SDS011;4206;48.634;9.516;2022-08-19T05:19:27;56.33;;;32.33;;
8337;SDS011;4206;48.634;9.516;2022-08-19T05:22:08;58.60;;;34.90;;
8337;SDS011;4206;48.634;9.516;2022-08-19T05:24:50;54.40;;;33.00;;
8337;SDS011;4206;48.634;9.516;2022-08-19T05:27:16;59.23;;;32.10;;
8337;SDS011;4206;48.634;9.516;2022-08-19T05:29:42;57.07;;;32.33;;
8337;SDS011;4206;48.634;9.516;2022-08-19T05:32:08;55.53;;;34.00;;
8337;SDS011;4206;48.634;9.516;2022-08-19T05:34:35;52.00;;;32.57;;
8337;SDS011;4206;48.634;9.516;2022-08-19T05:37:03;53.70;;;32.43;;
8337;SDS011;4206;48.634;9.516;2022-08-19T05:39:30;56.87;;;33.40;;
8337;SDS011;4206;48.634;9.516;2022-08-19T05:41:59;62.87;;;33.87;;
8337;SDS011;4206;48.634;9.516;2022-08-19T05:44:27;52.43;;;31.80;;
8337;SDS011;4206;48.634;9.516;2022-08-19T05:46:56;68.53;;;34.67;;
8337;SDS011;4206;48.634;9.516;2022-08-19T05:49:23;58.87;;;35.50;;
8337;SDS011;4206;48.634;9.516;2022-08-19T05:51:50;58.97;;;32.57;;
8337;SDS011;4206;48.634;9.516;2022-08-19T05:54:17;61.00;;;32.93;;
8337;SDS011;4206;48.634;9.516;2022-08-19T05:56:44;54.80;;;34.37;;
8337;SDS011;4206;48.634;9.516;2022-08-19T05:59:12;57.33;;;34.07;;
8337;SDS011;4206;48.634;9.516;2022-08-19T06:01:39;60.33;;;34.07;;
8337;SDS011;4206;48.634;9.516;2022-08-19T06:04:05;59.10;;;32.60;;
8337;SDS011;4206;48.634;9.516;2022-08-19T06:06:32;54.50;;;33.23;;
8337;SDS011;4206;48.634;9.516;2022-08-19T06:08:59;60.33;;;34.00;;
8337;SDS011;4206;48.634;9.516;2022-08-19T06:13:53;54.53;;;33.87;;
8337;SDS011;4206;48.634;9.516;2022-08-19T06:16:21;73.67;;;34.23;;
8337;SDS011;4206;48.634;9.516;2022-08-19T06:18:49;59.27;;;34.63;;
8337;SDS011;4206;48.634;9.516;2022-08-19T06:21:17;54.77;;;32.20;;
8337;SDS011;4206;48.634;9.516;2022-08-19T06:23:43;66.20;;;32.40;;
8337;SDS011;4206;48.634;9.516;2022-08-19T06:26:12;60.03;;;35.20;;
8337;SDS011;4206;48.634;9.516;2022-08-19T06:28:38;64.63;;;34.43;;
8337;SDS011;4206;48.634;9.516;2022-08-19T06:31:08;61.63;;;35.57;;
8337;SDS011;4206;48.634;9.516;2022-08-19T06:33:35;60.13;;;35.13;;
8337;SDS011;4206;48.634;9.516;2022-08-19T06:36:02;67.47;;;34.97;;
8337;SDS011;4206;48.634;9.516;2022-08-19T06:38:28;56.83;;;34.83;;
8337;SDS011;4206;48.634;9.516;2022-08-19T06:41:03;59.93;;;34.97;;
8337;SDS011;4206;48.634;9.516;2022-08-19T06:43:29;52.97;;;34.90;;
8337;SDS011;4206;48.634;9.516;2022-08-19T06:45:55;62.40;;;34.77;;
8337;SDS011;4206;48.634;9.516;2022-08-19T06:48:21;54.80;;;35.40;;
8337;SDS011;4206;48.634;9.516;2022-08-19T06:50:47;55.33;;;36.27;;
8337;SDS011;4206;48.634;9.516;2022-08-19T06:53:16;56.77;;;34.87;;
8337;SDS011;4206;48.634;9.516;2022-08-19T06:55:44;50.23;;;33.30;;
8337;SDS011;4206;48.634;9.516;2022-08-19T06:58:10;64.00;;;36.00;;
8337;SDS011;4206;48.634;9.516;2022-08-19T07:00:36;57.47;;;35.43;;
8337;SDS011;4206;48.634;9.516;2022-08-19T07:03:02;59.00;;;35.80;;
8337;SDS011;4206;48.634;9.516;2022-08-19T07:05:28;59.53;;;35.13;;
8337;SDS011;4206;48.634;9.516;2022-08-19T07:07:54;60.27;;;34.87;;
8337;SDS011;4206;48.634;9.516;2022-08-19T07:10:21;59.00;;;37.93;;
8337;SDS011;4206;48.634;9.516;2022-08-19T07:12:47;56.90;;;36.03;;
8337;SDS011;4206;48.634;9.516;2022-08-19T07:15:15;61.23;;;36.30;;
8337;SDS011;4206;48.634;9.516;2022-08-19T07:17:41;56.17;;;35.57;;
8337;SDS011;4206;48.634;9.516;2022-08-19T07:20:08;65.63;;;35.40;;
8337;SDS011;4206;48.634;9.516;2022-08-19T07:22:34;58.60;;;37.10;;
8337;SDS011;4206;48.634;9.516;2022-08-19T07:25:00;63.40;;;37.83;;
8337;SDS011;4206;48.634;9.516;2022-08-19T07:27:28;59.27;;;38.43;;
8337;SDS011;4206;48.634;9.516;2022-08-19T07:29:54;57.20;;;38.30;;
8337;SDS011;4206;48.634;9.516;2022-08-19T07:32:20;58.80;;;36.50;;
8337;SDS011;4206;48.634;9.516;2022-08-19T07:34:46;69.73;;;39.90;;
8337;SDS011;4206;48.634;9.516;2022-08-19T07:37:12;62.30;;;38.40;;
8337;SDS011;4206;48.634;9.516;2022-08-19T07:39:38;60.57;;;38.90;;
8337;SDS011;4206;48.634;9.516;2022-08-19T07:42:06;62.90;;;39.60;;
8337;SDS011;4206;48.634;9.516;2022-08-19T07:44:34;66.57;;;39.83;;
8337;SDS011;4206;48.634;9.516;2022-08-19T07:47:00;67.33;;;39.77;;
8337;SDS011;4206;48.634;9.516;2022-08-19T07:49:27;70.53;;;41.60;;
8337;SDS011;4206;48.634;9.516;2022-08-19T07:51:54;78.50;;;44.23;;
8337;SDS011;4206;48.634;9.516;2022-08-19T07:54:22;70.37;;;41.90;;
8337;SDS011;4206;48.634;9.516;2022-08-19T07:56:48;76.90;;;41.50;;
8337;SDS011;4206;48.634;9.516;2022-08-19T07:59:15;65.37;;;40.30;;
8337;SDS011;4206;48.634;9.516;2022-08-19T08:01:42;65.50;;;39.70;;
8337;SDS011;4206;48.634;9.516;2022-08-19T08:04:09;67.40;;;41.67;;
8337;SDS011;4206;48.634;9.516;2022-08-19T08:06:50;66.10;;;40.57;;
8337;SDS011;4206;48.634;9.516;2022-08-19T08:09:33;69.00;;;41.50;;
8337;SDS011;4206;48.634;9.516;2022-08-19T08:12:00;67.83;;;40.10;;
8337;SDS011;4206;48.634;9.516;2022-08-19T08:14:28;71.73;;;40.80;;
8337;SDS011;4206;48.634;9.516;2022-08-19T08:16:55;69.27;;;41.93;;
8337;SDS011;4206;48.634;9.516;2022-08-19T08:19:22;64.30;;;39.30;;
8337;SDS011;4206;48.634;9.516;2022-08-19T08:21:49;68.57;;;43.13;;
8337;SDS011;4206;48.634;9.516;2022-08-19T08:24:15;67.40;;;40.20;;
8337;SDS011;4206;48.634;9.516;2022-08-19T08:26:41;70.33;;;40.37;;
8337;SDS011;4206;48.634;9.516;2022-08-19T08:29:09;72.90;;;42.30;;
8337;SDS011;4206;48.634;9.516;2022-08-19T08:31:35;70.60;;;40.17;;
8337;SDS011;4206;48.634;9.516;2022-08-19T08:34:01;64.53;;;40.40;;
8337;SDS011;4206;48.634;9.516;2022-08-19T08:36:28;65.97;;;39.90;;
8337;SDS011;4206;48.634;9.516;2022-08-19T08:38:58;67.03;;;38.77;;
8337;SDS011;4206;48.634;9.516;2022-08-19T08:43:54;66.97;;;42.03;;
8337;SDS011;4206;48.634;9.516;2022-08-19T08:51:15;72.60;;;41.47;;
8337;SDS011;4206;48.634;9.516;2022-08-19T08:53:42;76.83;;;45.60;;
8337;SDS011;4206;48.634;9.516;2022-08-19T08:56:09;77.10;;;44.13;;
8337;SDS011;4206;48.634;9.516;2022-08-19T08:58:47;70.10;;;42.57;;
8337;SDS011;4206;48.634;9.516;2022-08-19T09:01:14;74.27;;;42.80;;
8337;SDS011;4206;48.634;9.516;2022-08-19T09:03:41;78.90;;;44.70;;
8337;SDS011;4206;48.634;9.516;2022-08-19T09:08:40;74.50;;;42.00;;
8337;SDS011;4206;48.634;9.516;2022-08-19T09:11:10;71.53;;;41.80;;
8337;SDS011;4206;48.634;9.516;2022-08-19T09:16:20;62.63;;;39.53;;
8337;SDS011;4206;48.634;9.516;2022-08-19T09:18:51;68.30;;;40.80;;
8337;SDS011;4206;48.634;9.516;2022-08-19T09:21:18;70.33;;;41.80;;
8337;SDS011;4206;48.634;9.516;2022-08-19T09:23:45;65.00;;;39.93;;
8337;SDS011;4206;48.634;9.516;2022-08-19T09:26:13;75.10;;;42.20;;
8337;SDS011;4206;48.634;9.516;2022-08-19T09:28:40;68.90;;;41.43;;
8337;SDS011;4206;48.634;9.516;2022-08-19T09:31:09;69.63;;;41.00;;
8337;SDS011;4206;48.634;9.516;2022-08-19T09:33:35;65.47;;;39.77;;
8337;SDS011;4206;48.634;9.516;2022-08-19T09:36:03;72.30;;;41.63;;
8337;SDS011;4206;48.634;9.516;2022-08-19T09:38:29;67.60;;;40.73;;
8337;SDS011;4206;48.634;9.516;2022-08-19T09:40:56;71.77;;;42.10;;
8337;SDS011;4206;48.634;9.516;2022-08-19T09:43:27;68.73;;;41.40;;
8337;SDS011;4206;48.634;9.516;2022-08-19T09:45:53;76.07;;;42.93;;
8337;SDS011;4206;48.634;9.516;2022-08-19T09:48:19;72.63;;;41.30;;
8337;SDS011;4206;48.634;9.516;2022-08-19T09:50:46;66.37;;;40.90;;
8337;SDS011;4206;48.634;9.516;2022-08-19T09:53:12;66.10;;;40.70;;
8337;SDS011;4206;48.634;9.516;2022-08-19T09:55:41;64.70;;;39.37;;
8337;SDS011;4206;48.634;9.516;2022-08-19T09:58:07;72.50;;;43.77;;
8337;SDS011;4206;48.634;9.516;2022-08-19T10:00:33;73.83;;;41.97;;
8337;SDS011;4206;48.634;9.516;2022-08-19T10:02:59;75.23;;;44.07;;
8337;SDS011;4206;48.634;9.516;2022-08-19T10:05:25;66.87;;;42.03;;
8337;SDS011;4206;48.634;9.516;2022-08-19T10:08:07;64.80;;;41.40;;
8337;SDS011;4206;48.634;9.516;2022-08-19T10:10:35;69.93;;;42.17;;
8337;SDS011;4206;48.634;9.516;2022-08-19T10:13:01;73.13;;;41.20;;
8337;SDS011;4206;48.634;9.516;2022-08-19T10:15:28;71.30;;;41.47;;
8337;SDS011;4206;48.634;9.516;2022-08-19T10:17:54;66.20;;;40.97;;
8337;SDS011;4206;48.634;9.516;2022-08-19T10:20:20;69.03;;;40.47;;
8337;SDS011;4206;48.634;9.516;2022-08-19T10:22:47;91.13;;;43.27;;
8337;SDS011;4206;48.634;9.516;2022-08-19T10:25:13;76.30;;;43.83;;
8337;SDS011;4206;48.634;9.516;2022-08-19T10:27:41;87.60;;;45.50;;
8337;SDS011;4206;48.634;9.516;2022-08-19T10:30:07;74.20;;;44.87;;
8337;SDS011;4206;48.634;9.516;2022-08-19T10:32:34;69.77;;;42.40;;
8337;SDS011;4206;48.634;9.516;2022-08-19T10:35:01;80.50;;;43.10;;
8337;SDS011;4206;48.634;9.516;2022-08-19T10:37:27;67.60;;;41.10;;
8337;SDS011;4206;48.634;9.516;2022-08-19T10:39:55;66.87;;;40.70;;
8337;SDS011;4206;48.634;9.516;2022-08-19T10:42:21;77.83;;;44.50;;
8337;SDS011;4206;48.634;9.516;2022-08-19T10:44:47;76.83;;;43.90;;
8337;SDS011;4206;48.634;9.516;2022-08-19T10:47:13;67.60;;;39.30;;
8337;SDS011;4206;48.634;9.516;2022-08-19T10:49:40;71.20;;;39.70;;
8337;SDS011;4206;48.634;9.516;2022-08-19T10:52:26;66.90;;;39.00;;
8337;SDS011;4206;48.634;9.516;2022-08-19T10:55:01;65.50;;;40.63;;
8337;SDS011;4206;48.634;9.516;2022-08-19T10:57:42;66.83;;;40.00;;
8337;SDS011;4206;48.634;9.516;2022-08-19T11:00:09;64.43;;;40.10;;
8337;SDS011;4206;48.634;9.516;2022-08-19T11:02:35;66.37;;;39.90;;
8337;SDS011;4206;48.634;9.516;2022-08-19T11:05:01;61.50;;;38.30;;
8337;SDS011;4206;48.634;9.516;2022-08-19T11:07:27;61.30;;;39.10;;
8337;SDS011;4206;48.634;9.516;2022-08-19T11:09:53;69.53;;;40.50;;
8337;SDS011;4206;48.634;9.516;2022-08-19T11:12:19;71.77;;;41.30;;
8337;SDS011;4206;48.634;9.516;2022-08-19T11:14:45;60.37;;;38.93;;
8337;SDS011;4206;48.634;9.516;2022-08-19T11:17:12;62.07;;;37.10;;
8337;SDS011;4206;48.634;9.516;2022-08-19T11:19:39;63.57;;;39.13;;
8337;SDS011;4206;48.634;9.516;2022-08-19T11:22:07;56.90;;;38.07;;
8337;SDS011;4206;48.634;9.516;2022-08-19T11:24:35;58.07;;;39.10;;
8337;SDS011;4206;48.634;9.516;2022-08-19T11:27:03;62.70;;;38.67;;
8337;SDS011;4206;48.634;9.516;2022-08-19T11:29:30;69.77;;;41.67;;
8337;SDS011;4206;48.634;9.516;2022-08-19T11:31:57;65.70;;;40.90;;
8337;SDS011;4206;48.634;9.516;2022-08-19T11:34:24;67.60;;;40.73;;
8337;SDS011;4206;48.634;9.516;2022-08-19T11:36:52;63.80;;;39.77;;
8337;SDS011;4206;48.634;9.516;2022-08-19T11:39:20;60.97;;;40.80;;
8337;SDS011;4206;48.634;9.516;2022-08-19T11:41:46;68.93;;;40.80;;
8337;SDS011;4206;48.634;9.516;2022-08-19T11:44:13;62.30;;;39.73;;
8337;SDS011;4206;48.634;9.516;2022-08-19T11:46:39;58.10;;;39.07;;
8337;SDS011;4206;48.634;9.516;2022-08-19T11:49:06;61.13;;;38.00;;
8337;SDS011;4206;48.634;9.516;2022-08-19T11:51:35;60.90;;;39.60;;
8337;SDS011;4206;48.634;9.516;2022-08-19T11:54:02;59.63;;;40.40;;
8337;SDS011;4206;48.634;9.516;2022-08-19T11:56:29;61.07;;;39.03;;
8337;SDS011;4206;48.634;9.516;2022-08-19T11:58:55;53.23;;;35.60;;
8337;SDS011;4206;48.634;9.516;2022-08-19T12:01:22;55.00;;;38.20;;
8337;SDS011;4206;48.634;9.516;2022-08-19T12:03:49;57.40;;;37.07;;
8337;SDS011;4206;48.634;9.516;2022-08-19T12:06:17;59.43;;;38.23;;
8337;SDS011;4206;48.634;9.516;2022-08-19T12:08:44;54.87;;;37.30;;
8337;SDS011;4206;48.634;9.516;2022-08-19T12:11:10;54.90;;;35.97;;
8337;SDS011;4206;48.634;9.516;2022-08-19T12:13:37;56.77;;;38.13;;
8337;SDS011;4206;48.634;9.516;2022-08-19T12:16:08;53.80;;;36.17;;
8337;SDS011;4206;48.634;9.516;2022-08-19T12:18:36;58.67;;;36.07;;
8337;SDS011;4206;48.634;9.516;2022-08-19T12:21:02;63.03;;;39.33;;
8337;SDS011;4206;48.634;9.516;2022-08-19T12:23:28;65.47;;;40.90;;
8337;SDS011;4206;48.634;9.516;2022-08-19T12:25:54;58.70;;;41.40;;
8337;SDS011;4206;48.634;9.516;2022-08-19T12:28:22;64.37;;;39.60;;
8337;SDS011;4206;48.634;9.516;2022-08-19T12:30:48;54.63;;;39.43;;
8337;SDS011;4206;48.634;9.516;2022-08-19T12:33:16;62.07;;;36.97;;
8337;SDS011;4206;48.634;9.516;2022-08-19T12:35:44;61.50;;;38.33;;
8337;SDS011;4206;48.634;9.516;2022-08-19T12:38:12;66.27;;;41.97;;
8337;SDS011;4206;48.634;9.516;2022-08-19T12:40:39;65.97;;;37.90;;
8337;SDS011;4206;48.634;9.516;2022-08-19T12:43:06;62.07;;;39.00;;
8337;SDS011;4206;48.634;9.516;2022-08-19T12:45:32;63.80;;;40.83;;
8337;SDS011;4206;48.634;9.516;2022-08-19T12:47:59;60.80;;;39.70;;
8337;SDS011;4206;48.634;9.516;2022-08-19T12:50:25;60.47;;;40.20;;
8337;SDS011;4206;48.634;9.516;2022-08-19T12:52:51;70.60;;;39.70;;
8337;SDS011;4206;48.634;9.516;2022-08-19T12:55:17;52.90;;;35.00;;
8337;SDS011;4206;48.634;9.516;2022-08-19T12:57:44;62.53;;;36.47;;
8337;SDS011;4206;48.634;9.516;2022-08-19T13:00:11;60.10;;;36.50;;
8337;SDS011;4206;48.634;9.516;2022-08-19T13:02:39;63.77;;;38.37;;
8337;SDS011;4206;48.634;9.516;2022-08-19T13:05:06;61.00;;;37.67;;
8337;SDS011;4206;48.634;9.516;2022-08-19T13:07:33;55.83;;;35.90;;
8337;SDS011;4206;48.634;9.516;2022-08-19T13:09:59;57.47;;;35.50;;
8337;SDS011;4206;48.634;9.516;2022-08-19T13:12:26;61.10;;;35.77;;
8337;SDS011;4206;48.634;9.516;2022-08-19T13:14:52;61.33;;;34.80;;
8337;SDS011;4206;48.634;9.516;2022-08-19T13:17:19;55.97;;;33.77;;
8337;SDS011;4206;48.634;9.516;2022-08-19T13:19:45;58.27;;;36.33;;
8337;SDS011;4206;48.634;9.516;2022-08-19T13:22:11;57.40;;;36.13;;
8337;SDS011;4206;48.634;9.516;2022-08-19T13:24:37;53.97;;;34.57;;
8337;SDS011;4206;48.634;9.516;2022-08-19T13:27:04;62.90;;;35.00;;
8337;SDS011;4206;48.634;9.516;2022-08-19T13:29:30;60.60;;;37.90;;
8337;SDS011;4206;48.634;9.516;2022-08-19T13:32:12;61.83;;;38.23;;
8337;SDS011;4206;48.634;9.516;2022-08-19T13:34:53;72.00;;;40.10;;
8337;SDS011;4206;48.634;9.516;2022-08-19T13:37:19;75.37;;;42.07;;
8337;SDS011;4206;48.634;9.516;2022-08-19T13:40:05;67.63;;;41.53;;
8337;SDS011;4206;48.634;9.516;2022-08-19T13:42:31;67.57;;;40.50;;
8337;SDS011;4206;48.634;9.516;2022-08-19T13:44:57;60.87;;;37.63;;
8337;SDS011;4206;48.634;9.516;2022-08-19T13:47:23;66.27;;;36.50;;
8337;SDS011;4206;48.634;9.516;2022-08-19T13:49:50;65.23;;;38.40;;
8337;SDS011;4206;48.634;9.516;2022-08-19T13:52:16;66.37;;;37.57;;
8337;SDS011;4206;48.634;9.516;2022-08-19T13:54:42;76.37;;;44.33;;
8337;SDS011;4206;48.634;9.516;2022-08-19T13:57:08;69.53;;;40.30;;
8337;SDS011;4206;48.634;9.516;2022-08-19T13:59:34;66.53;;;40.13;;
8337;SDS011;4206;48.634;9.516;2022-08-19T14:02:01;74.13;;;42.10;;
8337;SDS011;4206;48.634;9.516;2022-08-19T14:04:27;72.40;;;39.87;;
8337;SDS011;4206;48.634;9.516;2022-08-19T14:06:53;67.70;;;39.10;;
8337;SDS011;4206;48.634;9.516;2022-08-19T14:09:19;65.77;;;38.00;;
8337;SDS011;4206;48.634;9.516;2022-08-19T14:11:45;68.27;;;38.80;;
8337;SDS011;4206;48.634;9.516;2022-08-19T14:14:11;62.83;;;37.90;;
8337;SDS011;4206;48.634;9.516;2022-08-19T14:16:37;57.23;;;34.53;;
8337;SDS011;4206;48.634;9.516;2022-08-19T14:19:03;64.73;;;36.57;;
8337;SDS011;4206;48.634;9.516;2022-08-19T14:21:30;59.17;;;36.73;;
8337;SDS011;4206;48.634;9.516;2022-08-19T14:23:56;62.10;;;36.90;;
8337;SDS011;4206;48.634;9.516;2022-08-19T14:26:22;67.63;;;37.83;;
8337;SDS011;4206;48.634;9.516;2022-08-19T14:28:48;56.67;;;34.43;;
8337;SDS011;4206;48.634;9.516;2022-08-19T14:31:15;63.93;;;36.60;;
8337;SDS011;4206;48.634;9.516;2022-08-19T14:33:44;67.43;;;36.27;;
8337;SDS011;4206;48.634;9.516;2022-08-19T14:36:10;68.53;;;37.77;;
8337;SDS011;4206;48.634;9.516;2022-08-19T14:38:37;65.17;;;35.97;;
8337;SDS011;4206;48.634;9.516;2022-08-19T14:43:45;57.13;;;34.93;;
8337;SDS011;4206;48.634;9.516;2022-08-19T14:46:13;53.53;;;34.13;;
8337;SDS011;4206;48.634;9.516;2022-08-19T14:48:40;63.43;;;34.40;;
8337;SDS011;4206;48.634;9.516;2022-08-19T14:51:06;61.33;;;34.20;;
8337;SDS011;4206;48.634;9.516;2022-08-19T14:53:32;65.57;;;36.00;;
8337;SDS011;4206;48.634;9.516;2022-08-19T14:56:01;60.23;;;37.00;;
8337;SDS011;4206;48.634;9.516;2022-08-19T14:58:27;59.83;;;34.77;;
8337;SDS011;4206;48.634;9.516;2022-08-19T15:00:53;46.93;;;31.70;;
8337;SDS011;4206;48.634;9.516;2022-08-19T15:03:19;47.40;;;30.90;;
8337;SDS011;4206;48.634;9.516;2022-08-19T15:05:47;49.43;;;31.47;;
8337;SDS011;4206;48.634;9.516;2022-08-19T15:08:13;60.33;;;35.20;;